Time;durP1;ratioP1;P1;durP2;ratioP2;P2;SDS_P1;SDS_P2;PMS_P1;PMS_P2;Temp;Humidity;BMP_temperature;BMP_pressure;BME280_temperature;BME280_humidity;BME280_pressure;Samples;Min_cycle;Max_cycle;Signal;HPM_P1;HPM_P2
2021/07/04 00:01:43;;;;;;;21.48;12.70;;;;;;;12.62;100.00;97513.25;4965858;28;20050;-84
2021/07/04 00:04:17;;;;;;;19.50;12.23;;;;;;;12.68;100.00;97513.84;4969214;28;20055;-82
2021/07/04 00:06:44;;;;;;;30.38;14.45;;;;;;;12.70;100.00;97519.75;4981664;28;20054;-83
2021/07/04 00:09:11;;;;;;;22.33;14.15;;;;;;;12.73;100.00;97524.50;4965278;28;20055;-83
2021/07/04 00:11:44;;;;;;;22.33;13.45;;;;;;;12.65;100.00;97512.59;4959038;28;20050;-82
2021/07/04 00:14:14;;;;;;;22.25;13.35;;;;;;;12.54;100.00;97521.47;4963147;28;20097;-82
2021/07/04 00:16:44;;;;;;;24.52;13.50;;;;;;;12.49;100.00;97515.09;4963392;28;20046;-82
2021/07/04 00:19:14;;;;;;;23.45;13.32;;;;;;;12.42;100.00;97506.69;4963228;28;20073;-83
2021/07/04 00:21:41;;;;;;;22.85;13.98;;;;;;;12.37;100.00;97501.44;4963773;28;20043;-82
2021/07/04 00:24:08;;;;;;;20.65;13.45;;;;;;;12.41;100.00;97523.31;4973607;28;20050;-83
2021/07/04 00:26:35;;;;;;;19.63;13.05;;;;;;;12.41;100.00;97513.22;4965381;28;20061;-82
2021/07/04 00:29:03;;;;;;;20.55;13.48;;;;;;;12.42;100.00;97516.75;5025643;23;20045;-85
2021/07/04 00:31:30;;;;;;;20.88;11.88;;;;;;;12.30;100.00;97511.25;5034352;28;20068;-85
2021/07/04 00:34:01;;;;;;;19.77;11.82;;;;;;;12.33;100.00;97514.09;5034129;28;20061;-83
2021/07/04 00:36:29;;;;;;;23.15;12.18;;;;;;;12.27;100.00;97509.97;5003460;28;20053;-84
2021/07/04 00:39:01;;;;;;;18.67;11.90;;;;;;;12.21;100.00;97507.75;5006682;28;20051;-83
2021/07/04 00:41:27;;;;;;;21.50;12.65;;;;;;;12.22;100.00;97509.38;5018735;28;20038;-82
2021/07/04 00:43:54;;;;;;;19.73;13.32;;;;;;;12.24;100.00;97510.63;5000357;28;20073;-85
2021/07/04 00:46:21;;;;;;;18.50;13.57;;;;;;;12.24;100.00;97518.78;5000424;28;20140;-83
2021/07/04 00:48:48;;;;;;;22.63;14.15;;;;;;;12.20;100.00;97506.19;5005497;28;20057;-86
2021/07/04 00:51:14;;;;;;;23.42;13.50;;;;;;;12.20;100.00;97508.91;5015115;28;20129;-86
2021/07/04 00:53:41;;;;;;;24.08;14.95;;;;;;;12.23;100.00;97505.53;5011525;28;20441;-85
2021/07/04 00:56:09;;;;;;;23.80;13.30;;;;;;;12.24;100.00;97510.63;4985517;28;20489;-85
2021/07/04 00:58:35;;;;;;;26.35;13.77;;;;;;;12.20;100.00;97514.34;5019203;28;20108;-84
2021/07/04 01:01:02;;;;;;;21.45;12.90;;;;;;;12.17;100.00;97509.56;5018583;28;20513;-83
2021/07/04 01:03:29;;;;;;;22.20;13.95;;;;;;;12.18;100.00;97514.66;5000303;28;20042;-84
2021/07/04 01:05:56;;;;;;;19.73;13.15;;;;;;;12.18;100.00;97503.78;5016886;28;20449;-82
2021/07/04 01:08:23;;;;;;;24.60;14.23;;;;;;;12.18;100.00;97509.22;4982225;28;20054;-84
2021/07/04 01:10:53;;;;;;;21.10;13.80;;;;;;;12.17;100.00;97506.84;5015641;28;20103;-82
2021/07/04 01:13:19;;;;;;;22.08;15.07;;;;;;;12.15;100.00;97511.81;4998831;28;20046;-82
2021/07/04 01:15:47;;;;;;;25.70;14.80;;;;;;;12.06;100.00;97497.47;5020215;28;20046;-83
2021/07/04 01:18:13;;;;;;;27.52;14.90;;;;;;;12.09;100.00;97504.97;5001142;28;20049;-82
2021/07/04 01:20:41;;;;;;;23.42;14.77;;;;;;;12.00;100.00;97513.16;5016541;28;20050;-83
2021/07/04 01:23:14;;;;;;;23.17;14.40;;;;;;;11.81;100.00;97512.78;4982200;28;20108;-82
2021/07/04 01:25:52;;;;;;;31.38;13.82;;;;;;;11.67;100.00;97514.84;5015049;28;20046;-83
2021/07/04 01:28:21;;;;;;;21.98;13.93;;;;;;;11.68;100.00;97513.75;5015700;28;20454;-83
2021/07/04 01:30:59;;;;;;;26.25;13.77;;;;;;;11.57;100.00;97510.59;4993135;28;20046;-82
2021/07/04 01:33:27;;;;;;;28.60;13.90;;;;;;;11.54;100.00;97515.84;4984742;28;20046;-82
2021/07/04 01:35:55;;;;;;;22.35;13.18;;;;;;;11.42;100.00;97508.41;4984864;28;20125;-83
2021/07/04 01:38:23;;;;;;;24.17;13.00;;;;;;;11.34;100.00;97505.69;4996792;28;20038;-84
2021/07/04 01:40:52;;;;;;;22.58;12.77;;;;;;;11.36;100.00;97500.75;4963140;28;20042;-84
2021/07/04 01:43:19;;;;;;;22.67;14.05;;;;;;;11.41;100.00;97495.19;4994683;28;20053;-82
2021/07/04 01:45:47;;;;;;;21.27;13.23;;;;;;;11.32;100.00;97506.03;4980723;28;20057;-81
2021/07/04 01:48:15;;;;;;;20.55;13.15;;;;;;;11.34;100.00;97503.78;4978272;28;20054;-81
2021/07/04 01:50:46;;;;;;;23.95;12.82;;;;;;;11.34;100.00;97498.38;4962598;28;20137;-82
2021/07/04 01:53:17;;;;;;;27.42;13.18;;;;;;;11.13;100.00;97475.78;4994557;28;20069;-83
2021/07/04 01:55:45;;;;;;;22.33;13.27;;;;;;;11.01;100.00;97483.78;4977654;28;20046;-81
2021/07/04 01:58:14;;;;;;;27.65;12.15;;;;;;;11.09;100.00;97491.91;4978519;28;20058;-81
2021/07/04 02:00:43;;;;;;;20.10;12.23;;;;;;;11.13;100.00;97497.47;4977730;28;20054;-81
2021/07/04 02:03:11;;;;;;;19.27;10.93;;;;;;;10.98;100.00;97490.63;4961079;28;20119;-81
2021/07/04 02:05:39;;;;;;;23.88;10.82;;;;;;;10.98;100.00;97490.63;4977424;28;20052;-82
2021/07/04 02:08:07;;;;;;;24.15;11.70;;;;;;;10.97;100.00;97491.75;4961300;28;20056;-83
2021/07/04 02:10:37;;;;;;;23.33;12.43;;;;;;;11.03;100.00;97484.25;4961741;28;20070;-82
2021/07/04 02:13:06;;;;;;;20.52;12.52;;;;;;;11.15;100.00;97498.72;4977063;28;20110;-81
2021/07/04 02:15:35;;;;;;;26.95;12.25;;;;;;;11.21;100.00;97507.50;4994898;28;20049;-80
2021/07/04 02:18:14;;;;;;;19.98;10.57;;;;;;;11.13;100.00;97506.38;4976790;28;20632;-80
2021/07/04 02:20:45;;;;;;;13.38;10.40;;;;;;;11.03;100.00;97503.22;4996115;28;20042;-81
2021/07/04 02:23:15;;;;;;;19.45;11.10;;;;;;;11.13;100.00;97489.31;5023915;28;20052;-83
2021/07/04 02:25:44;;;;;;;19.80;10.55;;;;;;;11.21;100.00;97493.94;4980222;28;20153;-82
2021/07/04 02:28:13;;;;;;;16.23;10.00;;;;;;;11.07;100.00;97483.28;4980041;28;20053;-81
2021/07/04 02:30:40;;;;;;;20.05;9.63;;;;;;;10.88;100.00;97499.09;4980389;28;20041;-81
2021/07/04 02:33:09;;;;;;;17.90;10.02;;;;;;;10.88;100.00;97495.59;4980009;28;20391;-82
2021/07/04 02:35:39;;;;;;;21.55;10.50;;;;;;;10.98;100.00;97506.88;4995484;28;20052;-82
2021/07/04 02:38:07;;;;;;;18.77;10.75;;;;;;;11.02;100.00;97499.69;4996074;28;20049;-85
2021/07/04 02:40:35;;;;;;;19.20;10.80;;;;;;;11.01;100.00;97492.72;5014204;28;20053;-81
2021/07/04 02:43:04;;;;;;;17.17;10.55;;;;;;;11.09;100.00;97491.09;5001607;28;20061;-84
2021/07/04 02:45:31;;;;;;;18.85;10.35;;;;;;;11.15;100.00;97493.31;4998688;28;20490;-82
2021/07/04 02:47:57;;;;;;;18.27;10.35;;;;;;;11.21;100.00;97496.66;4997557;28;20054;-85
2021/07/04 02:50:24;;;;;;;17.60;9.50;;;;;;;11.12;100.00;97504.78;4981222;28;20053;-84
2021/07/04 02:52:53;;;;;;;17.38;10.48;;;;;;;11.11;100.00;97495.09;4999158;28;20042;-84
2021/07/04 02:55:21;;;;;;;23.27;10.07;;;;;;;11.19;100.00;97494.28;4980570;28;20136;-84
2021/07/04 02:57:48;;;;;;;20.83;12.07;;;;;;;11.18;100.00;97495.38;4980430;28;20441;-83
2021/07/04 03:00:21;;;;;;;25.00;13.85;;;;;;;11.22;100.00;97490.94;5014241;28;20052;-81
2021/07/04 03:02:49;;;;;;;21.17;12.32;;;;;;;11.05;100.00;97490.13;5024918;28;20065;-88
2021/07/04 03:05:16;;;;;;;21.30;12.25;;;;;;;10.92;100.00;97500.03;5003362;28;20066;-82
2021/07/04 03:07:44;;;;;;;23.63;12.93;;;;;;;10.93;100.00;97496.22;5033969;23;20497;-82
2021/07/04 03:10:14;;;;;;;20.80;13.10;;;;;;;10.93;100.00;97490.00;5023631;28;20041;-83
2021/07/04 03:12:42;;;;;;;20.52;12.77;;;;;;;11.09;100.00;97500.03;5042906;28;20101;-83
2021/07/04 03:15:12;;;;;;;20.08;12.88;;;;;;;11.13;100.00;97487.41;5022728;28;20073;-82
2021/07/04 03:17:40;;;;;;;21.40;12.77;;;;;;;11.15;100.00;97490.59;5041967;28;20046;-81
2021/07/04 03:20:09;;;;;;;20.20;12.05;;;;;;;11.06;100.00;97494.44;5042237;28;20244;-81
2021/07/04 03:22:36;;;;;;;23.63;11.35;;;;;;;11.08;100.00;97492.22;5042781;28;20049;-81
2021/07/04 03:25:05;;;;;;;21.40;12.65;;;;;;;11.06;100.00;97494.44;5041058;28;20092;-84
2021/07/04 03:27:34;;;;;;;20.40;12.10;;;;;;;11.06;100.00;97489.03;5043366;28;20041;-83
2021/07/04 03:30:08;;;;;;;16.33;11.60;;;;;;;11.12;100.00;97493.94;5024819;28;20049;-83
2021/07/04 03:32:35;;;;;;;20.40;12.65;;;;;;;11.22;100.00;97496.34;5041621;28;20137;-84
2021/07/04 03:35:06;;;;;;;21.77;11.68;;;;;;;11.28;100.00;97486.91;5041311;28;20069;-83
2021/07/04 03:37:32;;;;;;;20.23;12.05;;;;;;;11.25;100.00;97479.41;5019416;28;20052;-81
2021/07/04 03:39:59;;;;;;;22.17;11.25;;;;;;;11.31;100.00;97499.00;5036159;28;20260;-84
2021/07/04 03:42:25;;;;;;;15.77;10.68;;;;;;;11.32;100.00;97481.66;5035875;28;20129;-82
2021/07/04 03:44:52;;;;;;;19.90;11.23;;;;;;;11.41;100.00;97497.91;5035241;28;20049;-83
2021/07/04 03:47:23;;;;;;;16.15;11.07;;;;;;;11.51;100.00;97490.19;5001599;28;20410;-83
2021/07/04 03:49:50;;;;;;;18.33;11.27;;;;;;;11.60;100.00;97482.03;5041113;28;20056;-84
2021/07/04 03:52:17;;;;;;;18.42;11.68;;;;;;;11.67;100.00;97474.97;5022466;28;20041;-81
2021/07/04 03:54:44;;;;;;;16.98;10.38;;;;;;;11.80;100.00;97482.13;5001344;28;20136;-82
2021/07/04 03:57:23;;;;;;;17.10;10.70;;;;;;;11.89;100.00;97482.09;5038754;28;20046;-84
2021/07/04 03:59:56;;;;;;;18.80;10.90;;;;;;;11.99;100.00;97486.34;5042418;28;20420;-84
2021/07/04 04:02:25;;;;;;;16.30;11.15;;;;;;;12.08;100.00;97481.69;5044350;28;20136;-81
2021/07/04 04:04:56;;;;;;;22.10;11.52;;;;;;;12.24;100.00;97494.34;5042184;28;20519;-83
2021/07/04 04:07:24;;;;;;;20.73;11.93;;;;;;;12.31;100.00;97482.97;5040465;28;20049;-83
2021/07/04 04:09:52;;;;;;;18.50;11.30;;;;;;;12.43;100.00;97492.00;5040101;28;20041;-83
2021/07/04 04:12:19;;;;;;;17.63;10.48;;;;;;;12.58;100.00;97492.53;5021994;28;20046;-81
2021/07/04 04:14:46;;;;;;;16.73;10.23;;;;;;;12.61;100.00;97472.84;5004581;28;20050;-84
2021/07/04 04:17:13;;;;;;;16.25;10.07;;;;;;;12.80;100.00;97481.34;5020230;28;20041;-83
2021/07/04 04:19:40;;;;;;;19.20;9.75;;;;;;;12.83;100.00;97475.22;5019972;28;20045;-84
2021/07/04 04:22:07;;;;;;;13.88;9.30;;;;;;;12.99;100.00;97474.28;5020685;28;20112;-83
2021/07/04 04:24:33;;;;;;;14.68;8.98;;;;;;;13.15;100.00;97481.84;5023828;28;20068;-82
2021/07/04 04:27:00;;;;;;;13.20;8.80;;;;;;;13.27;100.00;97485.38;5028453;28;20049;-82
2021/07/04 04:29:27;;;;;;;12.73;8.50;;;;;;;13.34;100.00;97477.50;5046822;28;20132;-81
2021/07/04 04:31:54;;;;;;;13.40;8.60;;;;;;;13.50;100.00;97488.50;5038767;28;20037;-82
2021/07/04 04:34:23;;;;;;;14.10;8.00;;;;;;;13.66;100.00;97489.44;5039737;28;20037;-83
2021/07/04 04:36:51;;;;;;;13.43;7.72;;;;;;;13.77;100.00;97476.19;5027014;28;20068;-84
2021/07/04 04:39:20;;;;;;;15.95;7.75;;;;;;;13.97;100.00;97480.72;5043346;28;20423;-82
2021/07/04 04:41:48;;;;;;;11.75;7.43;;;;;;;14.09;100.00;97469.84;5045798;28;20069;-82
2021/07/04 04:44:32;;;;;;;12.57;7.95;;;;;;;14.28;100.00;97476.28;5042657;28;20051;-84
2021/07/04 04:46:58;;;;;;;10.55;7.13;;;;;;;14.37;100.00;97469.94;5021353;28;20045;-83
2021/07/04 04:49:25;;;;;;;11.63;6.90;;;;;;;14.53;100.00;97468.13;5037249;28;20052;-83
2021/07/04 04:51:52;;;;;;;12.57;6.80;;;;;;;14.75;100.00;97462.94;5040835;28;20120;-82
2021/07/04 04:54:18;;;;;;;10.45;6.50;;;;;;;14.85;100.00;97457.00;5042788;28;20049;-86
2021/07/04 04:56:45;;;;;;;12.43;6.75;;;;;;;15.07;100.00;97463.84;5023163;28;20045;-81
2021/07/04 04:59:12;;;;;;;12.13;6.35;;;;;;;15.20;100.00;97465.34;5039580;28;20053;-85
2021/07/04 05:01:41;;;;;;;9.32;6.32;;;;;;;15.27;100.00;97471.00;5034712;28;20059;-83
2021/07/04 05:04:09;;;;;;;9.80;6.45;;;;;;;15.44;100.00;97453.50;5018905;28;20049;-84
2021/07/04 05:06:35;;;;;;;7.88;6.07;;;;;;;15.49;100.00;97462.25;5038715;28;20060;-84
2021/07/04 05:09:03;;;;;;;9.18;5.97;;;;;;;15.63;100.00;97456.38;5042529;28;20054;-85
2021/07/04 05:11:30;;;;;;;9.68;6.28;;;;;;;15.76;100.00;97457.88;5016120;28;20049;-83
2021/07/04 05:13:57;;;;;;;10.38;6.38;;;;;;;15.96;100.00;97466.94;5043665;28;20045;-85
2021/07/04 05:16:27;;;;;;;8.20;5.80;;;;;;;16.10;100.00;97453.63;5011616;28;20068;-83
2021/07/04 05:18:54;;;;;;;11.45;6.88;;;;;;;16.23;100.00;97455.09;5046996;28;20120;-86
2021/07/04 05:21:25;;;;;;;12.18;5.90;;;;;;;16.39;100.00;97447.63;5029874;28;20060;-87
2021/07/04 05:24:09;;;;;;;12.38;6.38;;;;;;;16.50;100.00;97428.75;5046429;28;20113;-84
2021/07/04 05:26:40;;;;;;;12.85;5.95;;;;;;;16.57;100.00;97424.25;5009203;28;20060;-88
2021/07/04 05:29:35;;;;;;;11.20;6.20;;;;;;;16.93;100.00;97457.81;5004824;28;20049;-89
2021/07/04 05:32:40;;;;;;;10.73;6.05;;;;;;;16.99;100.00;97432.53;4993578;28;20056;-88
2021/07/04 05:35:38;;;;;;;12.85;5.45;;;;;;;17.29;100.00;97451.88;5014236;28;20117;-88
2021/07/04 05:38:37;;;;;;;10.15;5.55;;;;;;;17.25;100.00;97424.44;5035817;28;20049;-89
2021/07/04 05:41:10;;;;;;;9.93;5.40;;;;;;;17.27;100.00;97426.78;5004514;28;20050;-88
2021/07/04 05:43:45;;;;;;;6.90;5.15;;;;;;;17.31;100.00;97412.03;5018737;28;20048;-86
2021/07/04 05:46:29;;;;;;;8.25;5.60;;;;;;;17.53;100.00;97443.34;5002081;28;20045;-87
2021/07/04 05:49:09;;;;;;;9.27;5.25;;;;;;;17.64;100.00;97447.06;5001503;28;20429;-88
2021/07/04 05:51:48;;;;;;;8.70;5.00;;;;;;;17.61;100.00;97425.09;5017997;28;20041;-87
2021/07/04 05:54:37;;;;;;;10.07;5.32;;;;;;;17.78;100.00;97428.09;5002376;28;20152;-88
2021/07/04 05:57:22;;;;;;;8.18;5.10;;;;;;;17.80;100.00;97401.19;5004874;28;20045;-88
2021/07/04 05:59:52;;;;;;;9.90;5.18;;;;;;;17.78;100.00;97392.50;5027123;28;20064;-85
2021/07/04 06:02:34;;;;;;;;;;;;;;;;;;;;;
2021/07/04 06:05:05;;;;;;;6.90;4.93;;;;;;;18.35;100.00;97424.28;5028420;28;20504;-90
2021/07/04 06:07:34;;;;;;;9.55;4.63;;;;;;;18.29;100.00;97409.34;5026924;28;20528;-84
2021/07/04 06:10:28;;;;;;;6.32;4.40;;;;;;;18.61;100.00;97429.75;5012520;28;20583;-89
2021/07/04 06:13:01;;;;;;;5.90;4.28;;;;;;;18.73;100.00;97423.28;5046290;28;20048;-86
2021/07/04 06:15:35;;;;;;;5.47;4.20;;;;;;;18.94;100.00;97420.00;5012396;28;20050;-82
2021/07/04 06:18:02;;;;;;;6.72;4.70;;;;;;;19.11;100.00;97430.38;5023273;28;20643;-84
2021/07/04 06:20:29;;;;;;;10.23;4.65;;;;;;;19.05;100.00;97418.94;5044015;28;20144;-85
2021/07/04 06:22:56;;;;;;;9.50;4.75;;;;;;;19.18;100.00;97424.94;5025196;28;20045;-86
2021/07/04 06:25:23;;;;;;;9.80;5.00;;;;;;;19.24;100.00;97424.25;5005574;28;20557;-84
2021/07/04 06:27:50;;;;;;;6.38;4.82;;;;;;;19.23;100.00;97413.63;5019013;28;20049;-87
2021/07/04 06:30:18;;;;;;;7.18;4.32;;;;;;;19.27;100.00;97419.97;5021017;28;20052;-85
2021/07/04 06:32:45;;;;;;;6.47;4.55;;;;;;;19.27;100.00;97425.47;5039446;28;20033;-86
2021/07/04 06:35:15;;;;;;;6.57;4.65;;;;;;;19.25;100.00;97409.34;5043949;28;20201;-85
2021/07/04 06:37:43;;;;;;;8.80;4.80;;;;;;;19.45;100.00;97418.22;5029901;28;20041;-86
2021/07/04 06:40:20;;;;;;;6.95;4.38;;;;;;;19.41;100.00;97411.88;5031022;28;20045;-87
2021/07/04 06:43:13;;;;;;;9.00;4.78;;;;;;;19.22;100.00;97401.91;5042082;28;20045;-89
2021/07/04 06:45:42;;;;;;;7.63;4.72;;;;;;;19.39;100.00;97407.94;5025380;28;20045;-85
2021/07/04 06:48:09;;;;;;;7.28;4.65;;;;;;;19.43;100.00;97406.84;5038481;28;20041;-87
2021/07/04 06:50:36;;;;;;;5.25;4.60;;;;;;;19.53;100.00;97408.88;5022974;28;20061;-84
2021/07/04 06:53:03;;;;;;;6.63;4.20;;;;;;;19.69;100.00;97412.16;5019702;28;20128;-82
2021/07/04 06:55:37;;;;;;;7.30;4.35;;;;;;;19.76;100.00;97417.72;5023977;28;20406;-86
2021/07/04 06:58:10;;;;;;;6.22;4.70;;;;;;;19.75;100.00;97413.38;5005237;28;20041;-84
2021/07/04 07:00:37;;;;;;;10.63;5.00;;;;;;;19.68;100.00;97391.34;5045397;28;20481;-86
2021/07/04 07:03:04;;;;;;;11.52;4.78;;;;;;;19.87;100.00;97415.81;5045694;28;20057;-84
2021/07/04 07:05:31;;;;;;;6.40;4.45;;;;;;;19.89;100.00;97402.53;5049555;28;20071;-85
2021/07/04 07:08:00;;;;;;;9.90;4.75;;;;;;;20.17;100.00;97420.38;5041152;28;20098;-86
2021/07/04 07:10:28;;;;;;;9.90;4.43;;;;;;;20.38;100.00;97418.59;5029600;28;20040;-84
2021/07/04 07:12:55;;;;;;;5.20;4.30;;;;;;;20.49;100.00;97407.66;5040864;28;20050;-84
2021/07/04 07:15:22;;;;;;;7.47;4.38;;;;;;;20.72;100.00;97408.16;5020558;28;20100;-81
2021/07/04 07:17:49;;;;;;;7.07;4.20;;;;;;;20.88;100.00;97416.09;5044673;28;20045;-84
2021/07/04 07:20:16;;;;;;;6.40;3.80;;;;;;;21.04;100.00;97406.31;5010904;28;20042;-84
2021/07/04 07:22:44;;;;;;;6.03;4.63;;;;;;;21.27;100.00;97410.69;5027912;28;20054;-83
2021/07/04 07:25:11;;;;;;;7.88;4.53;;;;;;;21.43;100.00;97397.38;5020375;28;20041;-84
2021/07/04 07:27:44;;;;;;;12.52;5.97;;;;;;;21.56;100.00;97406.81;5019220;28;20045;-84
2021/07/04 07:30:12;;;;;;;10.73;5.70;;;;;;;21.67;100.00;97396.63;5034675;28;20112;-84
2021/07/04 07:32:40;;;;;;;7.47;4.47;;;;;;;21.88;100.00;97410.44;5037131;28;20044;-82
2021/07/04 07:35:08;;;;;;;9.75;4.50;;;;;;;22.07;100.00;97398.19;5036691;28;20050;-84
2021/07/04 07:37:35;;;;;;;7.55;4.43;;;;;;;22.09;100.00;97391.09;5036918;28;20042;-84
2021/07/04 07:40:05;;;;;;;11.02;4.50;;;;;;;22.27;100.00;97397.38;5018386;28;20516;-84
2021/07/04 07:42:31;;;;;;;5.47;3.95;;;;;;;22.37;100.00;97393.03;5018776;28;20095;-86
2021/07/04 07:44:58;;;;;;;8.05;4.32;;;;;;;22.54;100.00;97389.44;5020988;28;20049;-83
2021/07/04 07:47:24;;;;;;;10.18;4.30;;;;;;;22.64;100.00;97396.91;5006878;28;20136;-84
2021/07/04 07:49:51;;;;;;;6.97;4.18;;;;;;;22.56;100.00;97383.50;5019091;28;20046;-82
2021/07/04 07:52:18;;;;;;;5.80;4.10;;;;;;;22.78;100.00;97387.81;5037559;28;20037;-82
2021/07/04 07:54:44;;;;;;;6.47;4.32;;;;;;;23.01;100.00;97374.28;5037021;28;20554;-82
2021/07/04 07:57:11;;;;;;;5.82;3.45;;;;;;;23.19;100.00;97382.47;5040052;28;20420;-82
2021/07/04 07:59:37;;;;;;;8.43;3.05;;;;;;;23.33;100.00;97377.63;5025489;28;20045;-80
2021/07/04 08:02:04;;;;;;;4.72;3.50;;;;;;;23.43;100.00;97367.75;5039860;28;20049;-82
2021/07/04 08:04:31;;;;;;;4.63;3.40;;;;;;;23.41;100.00;97364.59;5022073;28;20448;-82
2021/07/04 08:06:59;;;;;;;4.03;3.33;;;;;;;23.46;100.00;97362.19;5040558;28;20044;-82
2021/07/04 08:09:25;;;;;;;4.57;3.38;;;;;;;23.63;100.00;97368.00;5022792;28;20042;-83
2021/07/04 08:11:52;;;;;;;4.72;3.22;;;;;;;23.74;100.00;97357.63;5025893;28;20041;-82
2021/07/04 08:14:18;;;;;;;5.75;3.47;;;;;;;23.80;100.00;97362.31;5041283;28;20045;-84
2021/07/04 08:16:45;;;;;;;5.03;3.38;;;;;;;23.92;100.00;97352.75;5034401;28;20029;-83
2021/07/04 08:19:13;;;;;;;6.00;4.10;;;;;;;24.03;100.00;97351.44;5041756;28;20041;-82
2021/07/04 08:21:41;;;;;;;4.88;3.58;;;;;;;24.19;100.00;97361.97;5022027;28;20042;-83
2021/07/04 08:24:08;;;;;;;5.47;3.53;;;;;;;24.18;100.00;97341.06;5039472;28;20358;-82
2021/07/04 08:26:35;;;;;;;5.97;3.60;;;;;;;23.88;87.79;97340.91;5027964;28;20081;-82
2021/07/04 08:29:03;;;;;;;6.65;3.50;;;;;;;24.17;93.68;97348.56;5039847;28;20033;-82
2021/07/04 08:31:31;;;;;;;6.25;3.88;;;;;;;24.29;89.32;97347.25;5039653;28;20049;-82
2021/07/04 08:33:58;;;;;;;5.65;3.45;;;;;;;24.31;100.00;97347.63;5010027;28;20057;-82
2021/07/04 08:36:30;;;;;;;6.25;3.60;;;;;;;24.60;95.09;97343.31;5023509;28;20053;-81
2021/07/04 08:38:59;;;;;;;6.03;3.70;;;;;;;24.61;100.00;97331.06;5045011;28;20049;-83
2021/07/04 08:41:34;;;;;;;4.78;3.33;;;;;;;24.74;100.00;97334.06;5020993;28;20046;-84
2021/07/04 08:44:06;;;;;;;5.28;3.67;;;;;;;25.08;100.00;97331.28;5020893;28;20037;-87
2021/07/04 08:46:38;;;;;;;6.88;3.65;;;;;;;25.22;98.21;97337.38;5020953;28;20045;-83
2021/07/04 08:49:05;;;;;;;6.25;3.88;;;;;;;25.29;100.00;97336.50;5039119;28;20045;-84
2021/07/04 08:51:32;;;;;;;5.05;3.67;;;;;;;25.67;91.16;97334.34;5007540;28;20049;-83
2021/07/04 08:53:58;;;;;;;7.28;3.80;;;;;;;25.70;96.63;97322.41;5021640;28;20045;-84
2021/07/04 08:56:25;;;;;;;4.72;3.33;;;;;;;26.21;93.09;97323.91;5004121;28;20072;-84
2021/07/04 08:58:55;;;;;;;5.82;3.70;;;;;;;25.94;57.71;97319.19;5003230;28;20049;-80
2021/07/04 09:01:28;;;;;;;;;;;;;;;26.28;62.10;97320.97;5040077;28;20101;-83
2021/07/04 09:04:11;;;;;;;4.57;3.70;;;;;;;26.51;56.07;97309.81;5037029;28;20071;-82
2021/07/04 09:06:46;;;;;;;5.22;3.50;;;;;;;26.88;52.81;97315.03;5026573;23;20049;-84
2021/07/04 09:09:26;;;;;;;4.30;3.90;;;;;;;26.71;49.11;97316.16;4999455;28;20046;-82
2021/07/04 09:12:00;;;;;;;7.22;3.67;;;;;;;26.96;49.88;97304.53;4998754;28;20286;-84
2021/07/04 09:14:32;;;;;;;6.47;3.92;;;;;;;27.37;46.57;97301.19;4997184;28;20042;-85
2021/07/04 09:17:17;;;;;;;5.70;3.40;;;;;;;27.16;46.20;97299.69;4998555;28;20050;-84
2021/07/04 09:19:57;;;;;;;4.93;3.30;;;;;;;26.99;47.32;97307.25;4997891;28;20139;-84
2021/07/04 09:22:28;;;;;;;4.75;3.70;;;;;;;26.65;46.51;97290.09;4998452;28;20415;-86
2021/07/04 09:25:09;;;;;;;10.27;3.80;;;;;;;27.39;47.18;97290.41;4999099;28;20065;-85
2021/07/04 09:27:37;;;;;;;4.90;3.45;;;;;;;26.84;49.66;97286.53;5021183;28;20046;-83
2021/07/04 09:30:10;;;;;;;5.97;3.63;;;;;;;27.19;49.56;97284.94;5002502;28;20065;-86
2021/07/04 09:32:48;;;;;;;4.85;3.58;;;;;;;27.03;47.19;97291.25;5004459;28;20039;-86
2021/07/04 09:35:18;;;;;;;5.43;3.28;;;;;;;27.29;46.43;97285.91;5003976;28;20061;-84
2021/07/04 09:37:48;;;;;;;5.07;3.20;;;;;;;25.89;57.74;97297.50;5003759;28;20102;-86
2021/07/04 09:40:18;;;;;;;6.43;3.42;;;;;;;26.59;51.26;97303.69;5001539;28;20053;-84
2021/07/04 09:42:55;;;;;;;5.10;3.70;;;;;;;26.41;49.60;97289.41;5001022;28;20047;-84
2021/07/04 09:45:23;;;;;;;4.82;3.45;;;;;;;27.43;45.78;97288.38;4999188;28;20053;-85
2021/07/04 09:47:57;;;;;;;7.22;4.28;;;;;;;27.94;43.86;97281.13;5002896;28;20050;-85
2021/07/04 09:50:25;;;;;;;6.68;4.45;;;;;;;28.60;45.50;97280.47;5003828;28;20458;-84
2021/07/04 09:53:01;;;;;;;4.72;3.38;;;;;;;28.02;42.99;97280.53;5002160;28;20060;-84
2021/07/04 09:55:30;;;;;;;6.85;3.58;;;;;;;27.29;50.17;97280.34;4999305;28;20049;-82
2021/07/04 09:58:02;;;;;;;4.97;3.40;;;;;;;27.21;47.78;97274.97;5003242;28;20042;-85
2021/07/04 10:00:32;;;;;;;6.35;3.30;;;;;;;26.81;46.73;97273.50;5002746;28;20426;-86
2021/07/04 10:03:12;;;;;;;5.35;3.45;;;;;;;26.71;52.27;97277.28;5003562;28;20046;-85
2021/07/04 10:05:52;;;;;;;5.55;3.50;;;;;;;27.27;50.93;97271.66;4995241;28;20050;-84
2021/07/04 10:08:22;;;;;;;5.93;3.58;;;;;;;27.60;48.56;97276.81;4995087;28;20058;-85
2021/07/04 10:10:52;;;;;;;3.75;3.22;;;;;;;29.79;41.71;97277.97;4998370;28;20053;-83
2021/07/04 10:13:19;;;;;;;5.13;3.30;;;;;;;29.79;41.71;97277.97;4997757;28;20228;-84
2021/07/04 10:15:46;;;;;;;3.70;3.03;;;;;;;31.75;36.51;97256.94;4988742;28;20109;-85
2021/07/04 10:18:14;;;;;;;4.00;3.30;;;;;;;32.72;35.60;97250.28;4982025;28;20046;-84
2021/07/04 10:20:43;;;;;;;4.47;2.95;;;;;;;32.09;36.48;97245.50;4983761;28;20070;-84
2021/07/04 10:23:13;;;;;;;6.65;3.67;;;;;;;30.92;41.84;97234.78;4996697;28;20054;-84
2021/07/04 10:25:42;;;;;;;3.70;3.38;;;;;;;29.12;41.33;97239.09;4998660;28;20501;-81
2021/07/04 10:28:12;;;;;;;4.78;3.17;;;;;;;28.71;44.17;97239.19;4995133;28;20073;-85
2021/07/04 10:30:40;;;;;;;4.30;3.28;;;;;;;27.51;46.95;97234.16;4995072;28;20042;-85
2021/07/04 10:33:14;;;;;;;6.68;3.40;;;;;;;28.88;44.30;97233.06;4995505;28;20046;-85
2021/07/04 10:36:00;;;;;;;7.57;3.42;;;;;;;29.59;44.41;97237.16;4997155;28;20384;-84
2021/07/04 10:38:49;;;;;;;4.55;3.60;;;;;;;28.89;45.25;97222.69;4997807;28;20064;-82
2021/07/04 10:41:19;;;;;;;6.85;4.22;;;;;;;29.03;44.68;97223.06;5000172;28;20427;-84
2021/07/04 10:43:50;;;;;;;9.82;4.30;;;;;;;28.80;44.87;97225.38;4997965;28;20046;-83
2021/07/04 10:46:18;;;;;;;8.25;3.80;;;;;;;30.71;41.01;97228.72;4996663;28;20121;-81
2021/07/04 10:48:55;;;;;;;5.75;3.58;;;;;;;32.31;36.80;97217.31;4994602;28;20061;-83
2021/07/04 10:51:23;;;;;;;6.10;3.40;;;;;;;33.71;34.86;97214.59;4996329;28;20097;-83
2021/07/04 10:53:55;;;;;;;6.07;3.22;;;;;;;33.21;34.49;97213.50;4989247;28;20057;-82
2021/07/04 10:56:33;;;;;;;3.45;3.15;;;;;;;32.83;35.28;97211.28;4986260;28;20046;-82
2021/07/04 10:59:08;;;;;;;4.10;3.42;;;;;;;32.83;33.56;97204.91;4989027;28;20105;-84
2021/07/04 11:01:58;;;;;;;5.72;3.50;;;;;;;31.96;35.51;97206.41;4992551;28;20062;-82
2021/07/04 11:04:28;;;;;;;4.07;3.10;;;;;;;35.01;32.99;97201.97;4982497;28;20148;-81
2021/07/04 11:07:03;;;;;;;4.25;3.30;;;;;;;36.12;31.22;97194.31;4998747;28;20050;-80
2021/07/04 11:09:55;;;;;;;5.43;3.38;;;;;;;37.59;28.51;97190.91;4997495;28;20475;-83
2021/07/04 11:12:34;;;;;;;4.65;3.15;;;;;;;38.34;27.23;97182.50;4997809;28;20487;-81
2021/07/04 11:15:13;;;;;;;4.13;3.70;;;;;;;35.23;29.65;97187.47;4996541;28;20050;-84
2021/07/04 11:17:58;;;;;;;4.93;3.50;;;;;;;36.65;29.37;97177.66;4998628;28;20046;-81
2021/07/04 11:20:32;;;;;;;4.72;3.60;;;;;;;33.78;30.79;97177.75;4994891;28;20046;-81
2021/07/04 11:23:03;;;;;;;4.03;3.55;;;;;;;32.64;33.15;97179.75;4995548;28;20412;-83
2021/07/04 11:25:48;;;;;;;4.10;3.20;;;;;;;35.62;29.53;97169.09;4996514;28;20042;-83
2021/07/04 11:28:14;;;;;;;6.25;3.58;;;;;;;34.59;30.73;97175.44;5000246;28;20045;-83
2021/07/04 11:30:42;;;;;;;3.95;3.10;;;;;;;35.35;30.99;97163.88;4988010;28;20042;-84
2021/07/04 11:33:34;;;;;;;4.32;2.95;;;;;;;36.90;28.96;97164.78;5010239;28;20031;-83
2021/07/04 11:36:03;;;;;;;4.32;3.50;;;;;;;34.80;30.79;97152.53;5008747;28;20042;-83
2021/07/04 11:38:34;;;;;;;6.78;3.67;;;;;;;32.50;31.80;97143.94;4980814;28;20077;-81